createdAt,value
2023-02-11T00:00:41.844Z,1.32
2023-02-11T00:03:09.148Z,1.21
2023-02-11T00:05:35.865Z,1.27
2023-02-11T00:08:02.492Z,1.38
2023-02-11T00:10:29.183Z,1.33
2023-02-11T00:12:56.308Z,1.40
2023-02-11T00:15:22.961Z,1.35
2023-02-11T00:17:49.606Z,1.45
2023-02-11T00:20:16.352Z,1.33
2023-02-11T00:22:43.722Z,1.33
2023-02-11T00:25:10.491Z,1.34
2023-02-11T00:27:37.536Z,1.36
2023-02-11T00:30:05.404Z,1.39
2023-02-11T00:32:32.132Z,1.52
2023-02-11T00:34:58.741Z,1.50
2023-02-11T00:37:25.335Z,1.50
2023-02-11T00:39:51.997Z,1.44
2023-02-11T00:42:18.564Z,1.54
2023-02-11T00:44:45.232Z,1.50
2023-02-11T00:47:11.828Z,1.52
2023-02-11T00:49:40.340Z,1.63
2023-02-11T00:52:07.048Z,1.67
2023-02-11T00:54:33.728Z,1.73
2023-02-11T00:57:00.299Z,1.67
2023-02-11T00:59:27.172Z,1.72
2023-02-11T01:01:54.002Z,1.71
2023-02-11T01:04:20.605Z,1.68
2023-02-11T01:06:47.538Z,1.66
2023-02-11T01:09:14.268Z,1.77
2023-02-11T01:11:41.015Z,1.73
2023-02-11T01:14:08.190Z,1.83
2023-02-11T01:16:34.925Z,1.72
2023-02-11T01:19:01.791Z,1.72
2023-02-11T01:21:28.374Z,1.77
2023-02-11T01:23:54.989Z,1.82
2023-02-11T01:26:21.839Z,1.86
2023-02-11T01:28:48.428Z,1.78
2023-02-11T01:31:15.459Z,1.82
2023-02-11T01:33:42.437Z,1.87
2023-02-11T01:36:11.981Z,1.88
2023-02-11T01:38:40.110Z,1.94
2023-02-11T01:41:10.353Z,1.93
2023-02-11T01:43:41.528Z,1.97
2023-02-11T01:46:23.660Z,1.98
2023-02-11T01:49:22.811Z,2.01
2023-02-11T01:52:07.084Z,2.13
2023-02-11T01:54:59.042Z,2.22
2023-02-11T01:57:30.113Z,2.31
2023-02-11T02:00:05.808Z,2.28
2023-02-11T02:02:55.333Z,2.39
2023-02-11T02:05:29.428Z,2.48
2023-02-11T02:08:03.224Z,2.41
2023-02-11T02:10:31.302Z,2.53
2023-02-11T02:12:58.167Z,2.43
2023-02-11T02:15:33.212Z,2.55
2023-02-11T02:18:36.980Z,2.65
2023-02-11T02:21:09.643Z,2.61
2023-02-11T02:23:51.910Z,2.71
2023-02-11T02:26:24.324Z,2.65
2023-02-11T02:29:08.742Z,2.61
2023-02-11T02:32:00.305Z,2.65
2023-02-11T02:34:42.118Z,2.69
2023-02-11T02:37:16.041Z,2.86
2023-02-11T02:39:45.867Z,2.88
2023-02-11T02:42:13.889Z,2.92
2023-02-11T02:44:40.581Z,2.95
2023-02-11T02:47:07.157Z,3.23
2023-02-11T02:49:33.721Z,3.12
2023-02-11T02:52:24.690Z,3.21
2023-02-11T02:55:13.598Z,3.07
2023-02-11T02:57:52.291Z,3.24
2023-02-11T03:00:21.840Z,3.18
2023-02-11T03:03:19.520Z,3.23
2023-02-11T03:06:05.340Z,3.28
2023-02-11T03:08:43.814Z,3.17
2023-02-11T03:11:14.479Z,3.32
2023-02-11T03:13:43.705Z,3.31
2023-02-11T03:16:23.036Z,3.26
2023-02-11T03:19:00.858Z,3.25
2023-02-11T03:21:29.137Z,3.31
2023-02-11T03:24:00.636Z,3.21
2023-02-11T03:26:36.432Z,3.23
2023-02-11T03:29:07.127Z,3.41
2023-02-11T03:31:47.803Z,3.38
2023-02-11T03:34:29.929Z,3.30
2023-02-11T03:37:02.626Z,3.50
2023-02-11T03:39:52.084Z,3.46
2023-02-11T03:42:20.096Z,3.48
2023-02-11T03:44:53.536Z,3.61
2023-02-11T03:47:24.610Z,3.52
2023-02-11T03:49:53.427Z,3.50
2023-02-11T03:52:23.290Z,3.47
2023-02-11T03:54:53.763Z,3.47
2023-02-11T03:57:20.460Z,3.69
2023-02-11T03:59:54.702Z,3.60
2023-02-11T04:02:24.298Z,3.53
2023-02-11T04:04:51.046Z,3.48
2023-02-11T04:07:17.688Z,3.66
2023-02-11T04:09:44.263Z,3.73
2023-02-11T04:12:10.849Z,3.57
2023-02-11T04:14:37.513Z,3.55
2023-02-11T04:17:04.383Z,3.52
2023-02-11T04:19:31.021Z,3.55
2023-02-11T04:21:57.743Z,3.59
2023-02-11T04:24:24.390Z,3.80
2023-02-11T04:26:51.261Z,3.59
2023-02-11T04:29:19.454Z,3.68
2023-02-11T04:31:46.324Z,3.56
2023-02-11T04:34:12.974Z,3.54
2023-02-11T04:36:39.790Z,3.54
2023-02-11T04:39:06.598Z,3.62
2023-02-11T04:41:33.270Z,3.61
2023-02-11T04:43:59.876Z,3.53
2023-02-11T04:46:26.566Z,3.51
2023-02-11T04:48:53.266Z,3.55
2023-02-11T04:51:19.877Z,3.57
2023-02-11T04:53:46.442Z,3.67
2023-02-11T04:56:13.035Z,3.76
2023-02-11T04:58:39.652Z,3.73
2023-02-11T05:01:15.658Z,3.67
2023-02-11T05:03:43.260Z,3.60
2023-02-11T05:06:11.185Z,3.63
2023-02-11T05:08:38.113Z,3.61
2023-02-11T05:11:04.834Z,3.52
2023-02-11T05:13:32.222Z,3.58
2023-02-11T05:15:59.078Z,3.60
2023-02-11T05:18:25.642Z,3.58
2023-02-11T05:20:52.256Z,3.61
2023-02-11T05:23:18.830Z,3.54
2023-02-11T05:25:45.462Z,3.55
2023-02-11T05:28:12.114Z,3.49
2023-02-11T05:30:38.782Z,3.45
2023-02-11T05:33:05.465Z,3.56
2023-02-11T05:35:32.409Z,3.56
2023-02-11T05:37:58.999Z,3.58
2023-02-11T05:40:25.564Z,3.60
2023-02-11T05:42:52.141Z,3.63
2023-02-11T05:45:18.805Z,3.56
2023-02-11T05:47:45.468Z,3.68
2023-02-11T05:50:12.082Z,3.77
2023-02-11T05:52:38.650Z,3.69
2023-02-11T05:55:05.986Z,3.68
2023-02-11T05:57:32.664Z,3.70
2023-02-11T05:59:59.254Z,3.65
2023-02-11T06:02:25.987Z,3.79
2023-02-11T06:04:52.581Z,3.73
2023-02-11T06:07:19.776Z,3.68
2023-02-11T06:09:46.415Z,3.73
2023-02-11T06:12:13.102Z,3.73
2023-02-11T06:14:39.748Z,3.63
2023-02-11T06:17:06.689Z,3.84
2023-02-11T06:19:33.657Z,3.78
2023-02-11T06:22:00.378Z,3.81
2023-02-11T06:24:48.155Z,3.95
2023-02-11T06:27:13.606Z,3.84
2023-02-11T06:29:40.201Z,3.86
2023-02-11T06:32:08.608Z,3.84
2023-02-11T06:34:39.001Z,3.74
2023-02-11T06:37:06.059Z,3.79
2023-02-11T06:39:34.395Z,3.88
2023-02-11T06:42:05.376Z,3.78
2023-02-11T06:44:33.797Z,3.78
2023-02-11T06:47:00.407Z,3.79
2023-02-11T06:49:27.091Z,3.75
2023-02-11T06:51:53.717Z,3.69
2023-02-11T06:54:20.387Z,3.82
2023-02-11T06:56:47.140Z,3.76
2023-02-11T06:59:18.582Z,3.86
2023-02-11T07:01:45.222Z,3.77
2023-02-11T07:04:11.929Z,3.85
2023-02-11T07:06:38.535Z,3.87
2023-02-11T07:09:05.589Z,3.92
2023-02-11T07:11:33.028Z,3.84
2023-02-11T07:14:06.127Z,3.92
2023-02-11T07:16:33.554Z,3.85
2023-02-11T07:19:00.382Z,3.98
2023-02-11T07:21:27.157Z,3.99
2023-02-11T07:23:53.878Z,4.00
2023-02-11T07:26:23.232Z,3.91
2023-02-11T07:28:50.520Z,3.95
2023-02-11T07:31:23.876Z,4.13
2023-02-11T07:33:53.052Z,4.11
2023-02-11T07:36:19.990Z,4.19
2023-02-11T07:38:47.259Z,4.26
2023-02-11T07:41:16.644Z,4.41
2023-02-11T07:43:44.062Z,4.51
2023-02-11T07:46:15.824Z,4.61
2023-02-11T07:48:42.810Z,4.62
2023-02-11T07:51:12.491Z,4.64
2023-02-11T07:53:39.302Z,4.71
2023-02-11T07:56:07.825Z,4.81
2023-02-11T07:58:34.548Z,4.76
2023-02-11T08:01:03.502Z,4.81
2023-02-11T08:03:30.252Z,4.80
2023-02-11T08:05:56.877Z,4.63
2023-02-11T08:08:25.922Z,4.74
2023-02-11T08:10:52.648Z,4.78
2023-02-11T08:13:19.415Z,4.80
2023-02-11T08:15:46.131Z,4.85
2023-02-11T08:18:12.714Z,4.86
2023-02-11T08:20:39.485Z,4.92
2023-02-11T08:23:07.725Z,4.93
2023-02-11T08:25:34.334Z,5.03
2023-02-11T08:28:00.998Z,5.10
2023-02-11T08:30:27.756Z,5.13
2023-02-11T08:32:54.457Z,5.04
2023-02-11T08:35:21.071Z,5.18
2023-02-11T08:37:47.671Z,5.10
2023-02-11T08:40:14.271Z,5.22
2023-02-11T08:42:43.166Z,5.33
2023-02-11T08:45:10.573Z,5.07
2023-02-11T08:47:37.295Z,5.17
2023-02-11T08:50:05.119Z,5.16
2023-02-11T08:52:31.700Z,5.16
2023-02-11T08:54:58.847Z,5.12
2023-02-11T08:57:25.599Z,5.21
2023-02-11T08:59:52.147Z,5.14
2023-02-11T09:02:18.799Z,5.17
2023-02-11T09:04:45.411Z,5.26
2023-02-11T09:07:12.680Z,5.31
2023-02-11T09:09:40.840Z,5.26
2023-02-11T09:12:07.560Z,5.45
2023-02-11T09:14:34.814Z,5.42
2023-02-11T09:17:01.494Z,5.37
2023-02-11T09:19:28.256Z,5.36
2023-02-11T09:21:55.078Z,5.46
2023-02-11T09:24:21.690Z,5.31
2023-02-11T09:26:49.674Z,5.47
2023-02-11T09:29:16.326Z,5.43
2023-02-11T09:31:43.121Z,5.48
2023-02-11T09:34:11.323Z,5.59
2023-02-11T09:36:39.640Z,5.60
2023-02-11T09:39:16.987Z,5.56
2023-02-11T09:42:10.546Z,5.65
2023-02-11T09:44:40.394Z,5.55
2023-02-11T09:47:24.803Z,5.55
2023-02-11T09:49:57.042Z,5.72
2023-02-11T09:52:55.484Z,5.79
2023-02-11T09:55:27.515Z,5.74
2023-02-11T09:57:55.644Z,5.78
2023-02-11T10:00:33.527Z,5.74
2023-02-11T10:03:09.074Z,5.77
2023-02-11T10:05:54.162Z,5.83
2023-02-11T10:08:48.680Z,5.82
2023-02-11T10:11:40.995Z,5.83
2023-02-11T10:14:15.785Z,5.84
2023-02-11T10:17:08.542Z,5.75
2023-02-11T10:19:40.986Z,5.86
2023-02-11T10:22:22.929Z,5.78
2023-02-11T10:24:59.922Z,5.74
2023-02-11T10:27:45.166Z,5.74
2023-02-11T10:30:22.902Z,5.78
2023-02-11T10:33:00.300Z,5.70
2023-02-11T10:35:27.395Z,5.81
2023-02-11T10:37:56.003Z,5.75
2023-02-11T10:40:25.886Z,5.72
2023-02-11T10:42:55.948Z,5.64
2023-02-11T10:45:45.679Z,5.82
2023-02-11T10:48:45.760Z,6.02
2023-02-11T10:51:35.653Z,5.89
2023-02-11T10:54:05.449Z,5.87
2023-02-11T10:56:35.566Z,5.92
2023-02-11T10:59:05.808Z,5.92
2023-02-11T11:02:02.628Z,5.80
2023-02-11T11:04:40.721Z,5.78
2023-02-11T11:07:16.918Z,5.75
2023-02-11T11:10:25.301Z,5.75
2023-02-11T11:12:52.136Z,5.73
2023-02-11T11:15:31.781Z,5.79
2023-02-11T11:18:21.840Z,5.64
2023-02-11T11:21:04.343Z,5.74
2023-02-11T11:23:38.424Z,5.89
2023-02-11T11:26:16.136Z,5.73
2023-02-11T11:28:54.893Z,5.62
2023-02-11T11:31:53.608Z,5.67
2023-02-11T11:34:41.862Z,5.58
2023-02-11T11:37:27.423Z,5.79
2023-02-11T11:40:18.349Z,5.77
2023-02-11T11:43:14.414Z,5.73
2023-02-11T11:45:56.615Z,5.85
2023-02-11T11:48:37.600Z,5.89
2023-02-11T11:51:11.614Z,5.71
2023-02-11T11:53:50.409Z,5.90
2023-02-11T11:56:21.847Z,5.79
2023-02-11T11:58:50.169Z,5.95
2023-02-11T12:01:35.165Z,5.96
2023-02-11T12:04:19.714Z,5.89
2023-02-11T12:06:52.217Z,5.97
2023-02-11T12:09:30.871Z,5.94
2023-02-11T12:12:00.509Z,5.90
2023-02-11T12:14:42.087Z,6.06
2023-02-11T12:17:29.058Z,6.05
2023-02-11T12:20:19.967Z,6.11
2023-02-11T12:23:17.517Z,6.00
2023-02-11T12:26:03.107Z,6.08
2023-02-11T12:28:50.802Z,6.19
2023-02-11T12:32:00.249Z,6.14
2023-02-11T12:34:54.291Z,6.18
2023-02-11T12:37:42.540Z,6.18
2023-02-11T12:40:21.881Z,6.23
2023-02-11T12:43:16.623Z,6.25
2023-02-11T12:46:09.155Z,6.40
2023-02-11T12:49:00.529Z,6.38
2023-02-11T12:52:03.429Z,6.42
2023-02-11T12:54:43.016Z,6.42
2023-02-11T12:57:22.666Z,6.46
2023-02-11T13:00:02.791Z,6.55
2023-02-11T13:02:45.076Z,6.63
2023-02-11T13:05:26.194Z,6.68
2023-02-11T13:08:15.563Z,6.67
2023-02-11T13:10:47.399Z,6.64
2023-02-11T13:13:22.522Z,6.67
2023-02-11T13:15:56.370Z,6.69
2023-02-11T13:18:28.908Z,6.65
2023-02-11T13:21:01.637Z,6.60
2023-02-11T13:23:56.852Z,6.48
2023-02-11T13:26:37.400Z,6.51
2023-02-11T13:29:16.009Z,6.50
2023-02-11T13:31:42.860Z,6.61
2023-02-11T13:34:44.498Z,6.76
2023-02-11T13:37:36.452Z,6.64
2023-02-11T13:40:23.225Z,6.50
2023-02-11T13:42:53.257Z,6.58
2023-02-11T13:45:45.410Z,6.64
2023-02-11T13:48:22.887Z,6.51
2023-02-11T13:50:53.567Z,6.53
2023-02-11T13:53:21.429Z,6.48
2023-02-11T13:56:10.075Z,6.47
2023-02-11T13:58:46.847Z,6.46
2023-02-11T14:01:39.293Z,6.48
2023-02-11T14:04:39.774Z,6.45
2023-02-11T14:07:52.206Z,6.42
2023-02-11T14:10:43.550Z,6.48
2023-02-11T14:13:28.262Z,6.47
2023-02-11T14:16:15.842Z,6.42
2023-02-11T14:18:51.982Z,6.46
2023-02-11T14:21:28.935Z,6.43
2023-02-11T14:24:01.393Z,6.42
2023-02-11T14:26:43.027Z,6.42
2023-02-11T14:29:15.839Z,6.45
2023-02-11T14:31:55.037Z,6.37
2023-02-11T14:34:45.990Z,6.35
2023-02-11T14:37:50.621Z,6.40
2023-02-11T14:40:27.527Z,6.42
2023-02-11T14:42:55.385Z,6.41
2023-02-11T14:45:28.733Z,6.40
2023-02-11T14:48:27.355Z,6.41
2023-02-11T14:51:18.873Z,6.36
2023-02-11T14:53:50.154Z,6.37
2023-02-11T14:56:24.613Z,6.39
2023-02-11T14:58:54.631Z,6.37
2023-02-11T15:01:32.126Z,6.37
2023-02-11T15:03:59.652Z,6.32
2023-02-11T15:06:41.125Z,6.34
2023-02-11T15:09:18.964Z,6.30
2023-02-11T15:11:49.029Z,6.27
2023-02-11T15:14:27.913Z,6.39
2023-02-11T15:16:58.199Z,6.51
2023-02-11T15:19:39.732Z,6.40
2023-02-11T15:22:20.186Z,6.40
2023-02-11T15:25:02.099Z,6.36
2023-02-11T15:27:38.640Z,6.38
2023-02-11T15:30:24.964Z,6.36
2023-02-11T15:33:03.319Z,6.31
2023-02-11T15:35:39.802Z,6.39
2023-02-11T15:38:07.457Z,6.34
2023-02-11T15:40:36.931Z,6.42
2023-02-11T15:43:10.945Z,6.37
2023-02-11T15:45:44.619Z,6.38
2023-02-11T15:48:18.671Z,6.31
2023-02-11T15:50:52.968Z,6.33
2023-02-11T15:53:25.837Z,6.41
2023-02-11T15:55:57.640Z,6.34
2023-02-11T15:58:24.430Z,6.31
2023-02-11T16:00:59.902Z,6.34
2023-02-11T16:03:32.514Z,6.25
2023-02-11T16:06:24.203Z,6.28
2023-02-11T16:09:21.642Z,6.25
2023-02-11T16:11:48.299Z,6.19
2023-02-11T16:14:29.474Z,6.26
2023-02-11T16:16:56.150Z,6.33
2023-02-11T16:19:25.643Z,6.33
2023-02-11T16:21:56.475Z,6.35
2023-02-11T16:24:29.703Z,6.31
2023-02-11T16:27:02.115Z,6.32
2023-02-11T16:29:33.309Z,6.29
2023-02-11T16:32:17.334Z,6.31
2023-02-11T16:34:44.589Z,6.32
2023-02-11T16:37:11.221Z,6.30
2023-02-11T16:39:37.872Z,6.32
2023-02-11T16:42:07.718Z,6.35
2023-02-11T16:44:35.206Z,6.35
2023-02-11T16:47:06.448Z,6.33
2023-02-11T16:49:35.628Z,6.33
2023-02-11T16:52:07.195Z,6.32
2023-02-11T16:54:34.293Z,6.27
2023-02-11T16:57:02.068Z,6.23
2023-02-11T16:59:34.444Z,6.29
2023-02-11T17:02:23.637Z,6.38
2023-02-11T17:04:55.181Z,6.30
2023-02-11T17:07:33.562Z,6.31
2023-02-11T17:10:02.795Z,6.34
2023-02-11T17:16:27.191Z,6.36
2023-02-11T17:19:38.170Z,6.31
2023-02-11T17:22:11.228Z,6.37
2023-02-11T17:24:42.356Z,6.34
2023-02-11T17:27:26.523Z,6.35
2023-02-11T17:30:04.046Z,6.40
2023-02-11T17:35:16.839Z,6.36
2023-02-11T17:40:32.309Z,6.38
2023-02-11T17:56:49.321Z,6.38
2023-02-11T18:02:40.056Z,6.46
2023-02-11T18:05:12.781Z,6.50
2023-02-11T18:16:30.861Z,6.47
2023-02-11T18:40:17.127Z,6.50
2023-02-11T18:59:02.961Z,6.49
2023-02-11T19:08:44.895Z,6.44
2023-02-11T19:57:17.683Z,6.20
2023-02-11T20:03:42.151Z,6.46
2023-02-11T20:06:18.574Z,6.53
2023-02-11T20:08:58.290Z,6.39
2023-02-11T20:11:28.283Z,6.37
2023-02-11T20:14:02.075Z,6.30
2023-02-11T20:16:48.056Z,6.40
2023-02-11T20:19:26.303Z,6.34
2023-02-11T20:22:03.386Z,6.22
2023-02-11T20:24:32.701Z,6.40
2023-02-11T20:27:07.463Z,6.38
2023-02-11T20:29:41.312Z,6.31
2023-02-11T20:32:13.853Z,6.27
2023-02-11T20:34:40.596Z,6.34
2023-02-11T20:37:12.868Z,6.30
2023-02-11T20:39:42.027Z,6.33
2023-02-11T20:42:14.856Z,6.26
2023-02-11T20:44:41.749Z,6.29
2023-02-11T20:49:58.496Z,6.17
2023-02-11T20:52:25.343Z,6.12
2023-02-11T20:54:56.432Z,6.12
2023-02-11T20:57:25.830Z,6.18
2023-02-11T20:59:55.215Z,6.15
2023-02-11T21:02:28.384Z,6.14
2023-02-11T21:04:57.526Z,6.09
2023-02-11T21:07:31.977Z,6.11
2023-02-11T21:10:00.783Z,6.13
2023-02-11T21:12:41.870Z,6.18
2023-02-11T21:15:15.229Z,6.16
2023-02-11T21:17:45.426Z,6.14
2023-02-11T21:20:24.521Z,6.02
2023-02-11T21:22:55.286Z,5.92
2023-02-11T21:25:28.222Z,6.02
2023-02-11T21:27:57.946Z,6.02
2023-02-11T21:30:30.036Z,6.08
2023-02-11T21:33:02.481Z,5.94
2023-02-11T21:35:42.399Z,6.04
2023-02-11T21:38:16.449Z,6.05
2023-02-11T21:40:59.497Z,6.14
2023-02-11T21:43:37.819Z,6.02
2023-02-11T21:46:24.525Z,5.93
2023-02-11T21:48:53.750Z,5.79
2023-02-11T21:51:51.694Z,5.87
2023-02-11T21:54:23.636Z,5.87
2023-02-11T21:56:59.836Z,5.82
2023-02-11T21:59:29.097Z,5.74
2023-02-11T22:02:06.498Z,5.74
2023-02-11T22:04:37.968Z,5.83
2023-02-11T22:07:07.254Z,5.86
2023-02-11T22:09:36.390Z,5.77
2023-02-11T22:12:10.291Z,5.81
2023-02-11T22:14:37.881Z,5.90
2023-02-11T22:17:13.829Z,5.89
2023-02-11T22:19:54.634Z,5.97
2023-02-11T22:22:27.054Z,6.05
2023-02-11T22:24:58.388Z,5.94
2023-02-11T22:27:27.803Z,5.78
2023-02-11T22:30:00.365Z,5.77
2023-02-11T22:32:29.398Z,5.83
2023-02-11T22:34:56.103Z,5.77
2023-02-11T22:37:37.330Z,5.65
2023-02-11T22:40:12.453Z,5.79
2023-02-11T22:42:49.428Z,5.82
2023-02-11T22:45:25.886Z,5.93
2023-02-11T22:47:59.787Z,5.74
2023-02-11T22:50:28.855Z,5.72
2023-02-11T22:52:55.458Z,5.74
2023-02-11T22:55:22.057Z,5.74
2023-02-11T22:57:48.629Z,5.69
2023-02-11T23:00:15.960Z,5.69
2023-02-11T23:02:42.680Z,5.69
2023-02-11T23:05:09.320Z,5.88
2023-02-11T23:07:36.394Z,5.85
2023-02-11T23:10:03.638Z,5.78
2023-02-11T23:12:30.642Z,5.73
2023-02-11T23:14:57.243Z,5.87
2023-02-11T23:17:24.613Z,5.76
2023-02-11T23:19:51.373Z,5.77
2023-02-11T23:22:18.202Z,5.63
2023-02-11T23:24:44.917Z,5.67
2023-02-11T23:27:11.501Z,5.62
2023-02-11T23:29:38.344Z,5.84
2023-02-11T23:32:05.434Z,5.79
2023-02-11T23:34:34.317Z,5.68
2023-02-11T23:37:01.030Z,5.68
2023-02-11T23:39:27.704Z,5.57
2023-02-11T23:41:59.085Z,5.90
2023-02-11T23:44:26.872Z,5.82
2023-02-11T23:46:53.872Z,5.76
2023-02-11T23:49:20.532Z,5.78
2023-02-11T23:51:47.124Z,5.80
2023-02-11T23:54:14.878Z,5.86
2023-02-11T23:56:44.681Z,5.90
2023-02-11T23:59:11.725Z,5.79
